»·PEaware :: N973SE L17-L52

N973SE :: L17-L52

FLIGHT INFORMATION

Flight Status: Arrived
Operator: Privately registered:
United States
More flights under this callsign
Pilot: Stig E. (4778)
Aircraft: Unknown
(DA62)
More flights by this aircraft type
Origin: L17 Taft-Kern Co
United States
Destination: L52 Oceano Co
United States
More flights between these airports :: More routes between these airports
Route: AVE
File this flight plan on PilotEdge
Remarks:
Altitude:
(Current/Filed)
6,500ft
Speed:
(Current/Filed)
160kts
Departed: 13-Oct-18 10:57 PM
Arrived: 13-Oct-18 11:42 PM
Distance/Time
Traveled:
58nm/0:45
Distance/Time
To Go:
Arrived

Flight Plot

Page will automatically refresh every two minutes.

Flight plan parsing failed; only flown route is shown


Map Options




Map Legend


Flown Route
Filed Route
Departure Airport
Arrival Airport
Navaid (VOR, NDB)
Fix

Horizontal Profiles

Position Reports

Time Latitude Longitude Heading Altitude Ground
Speed
13-Oct-18 22:52 35.140495 -119.443942 80 827ft 0kts
13-Oct-18 22:53 35.140495 -119.443942 80 827ft 0kts
13-Oct-18 22:54 35.140495 -119.443942 80 827ft 0kts
13-Oct-18 22:55 35.140495 -119.443942 80 827ft 0kts
13-Oct-18 22:56 35.140495 -119.443942 80 827ft 0kts
13-Oct-18 22:57 35.140495 -119.443942 80 827ft 0kts
13-Oct-18 22:58 35.140776 -119.443648 71 827ft 11kts
13-Oct-18 22:59 35.147867 -119.419204 25 1511ft 95kts
13-Oct-18 23:00 35.173109 -119.425943 327 2760ft 97kts
13-Oct-18 23:01 35.186834 -119.454780 298 3973ft 101kts
13-Oct-18 23:02 35.198927 -119.485820 298 5179ft 102kts
13-Oct-18 23:03 35.213322 -119.523448 298 6393ft 123kts
13-Oct-18 23:04 35.228287 -119.561303 298 6406ft 161kts
13-Oct-18 23:05 35.248569 -119.612073 298 6415ft 168kts
13-Oct-18 23:06 35.281167 -119.645344 350 6418ft 163kts
13-Oct-18 23:07 35.325926 -119.656424 350 6406ft 166kts
13-Oct-18 23:08 35.367966 -119.679814 321 6396ft 171kts
13-Oct-18 23:09 35.409238 -119.723165 317 6397ft 163kts
13-Oct-18 23:10 35.437371 -119.753311 318 6399ft 161kts
13-Oct-18 23:11 35.470887 -119.789234 318 6404ft 160kts
13-Oct-18 23:12 35.504328 -119.825143 317 6409ft 160kts
13-Oct-18 23:13 35.537594 -119.861049 318 6426ft 159kts
13-Oct-18 23:14 35.570972 -119.896931 318 6433ft 160kts
13-Oct-18 23:15 35.604446 -119.932984 318 6440ft 160kts
13-Oct-18 23:16 35.637279 -119.969419 300 6439ft 159kts
13-Oct-18 23:17 35.608476 -119.991898 176 6454ft 168kts
13-Oct-18 23:18 35.562098 -119.993060 187 6452ft 167kts
13-Oct-18 23:19 35.516061 -119.999323 189 6453ft 166kts
13-Oct-18 23:20 35.470378 -120.006388 189 6461ft 166kts
13-Oct-18 23:21 35.417120 -120.014770 189 6470ft 166kts
13-Oct-18 23:22 35.379179 -120.020749 189 6476ft 166kts
13-Oct-18 23:23 35.333500 -120.027941 189 6480ft 166kts
13-Oct-18 23:24 35.287938 -120.035107 189 6480ft 166kts
13-Oct-18 23:25 35.242397 -120.042268 189 6481ft 166kts
13-Oct-18 23:26 35.196745 -120.049491 189 6481ft 166kts
13-Oct-18 23:27 35.150842 -120.056727 188 6483ft 167kts
13-Oct-18 23:28 35.110027 -120.074619 245 6486ft 163kts
13-Oct-18 23:29 35.095061 -120.126532 253 6484ft 163kts
13-Oct-18 23:30 35.081457 -120.179139 253 6483ft 162kts
13-Oct-18 23:31 35.068096 -120.230782 253 6479ft 152kts
13-Oct-18 23:32 35.055996 -120.277522 253 6134ft 143kts
13-Oct-18 23:33 35.044001 -120.323736 252 5402ft 142kts
13-Oct-18 23:34 35.032975 -120.366141 252 4739ft 141kts
13-Oct-18 23:35 35.032975 -120.366141 252 4739ft 141kts
13-Oct-18 23:36 35.032975 -120.366141 252 4739ft 141kts
13-Oct-18 23:37 35.025898 -120.393318 252 4315ft 140kts
13-Oct-18 23:38 35.014578 -120.436950 255 3636ft 140kts
13-Oct-18 23:39 35.030168 -120.479785 299 2942ft 141kts
13-Oct-18 23:40 35.050485 -120.520505 300 2155ft 140kts
13-Oct-18 23:41 35.070715 -120.560875 300 1131ft 139kts
13-Oct-18 23:42 35.086545 -120.593864 300 453ft 100kts
13-Oct-18 23:43 35.100553 -120.620438 300 17ft 82kts
13-Oct-18 23:44 35.103815 -120.625341 114 14ft 0kts
13-Oct-18 23:45 35.103815 -120.625341 114 14ft 0kts
13-Oct-18 23:46 35.103815 -120.625341 114 14ft 0kts

Navigation Log

Ident Type
Flight plan parsing failed, navigation log unavailable